Worley, ID (83876)

4:37 AM PDT on September 23, 2014 (GMT -0700)
KIDWORLE2 | Change Station
CLOSE
Current Station
Personal Weather Station
Location: Worley, ID
Elevation: 2657 ft
Nearby Weather Stations

Elev 2657 ft 47.44 °N, 116.90 °W | Updated 32 seconds ago

Overcast
Overcast
57.3 °F
Feels Like 57.3 °F
N
6.0
Wind Variable Wind from ENE
Gusts 7.0 mph

Today
High -- | Low -- °F
--% Chance of Precip.
Yesterday
High -- | Low -- °F
Precip. -- in
6:35 AM 6:43 PM
Waning Crescent, 1% visible
Pressure 29.97 in
Visibility 10.0 miles
Clouds Clear
Dew Point 54 °F
Humidity 88%
Rainfall 0.02 in
Snow Depth 1 in , 0 in , 0 in
UV 0 out of 12
Pollen 6.10 out of 12
Air Quality Not available.
Flu Activity Not available.
METAR KCOE 231115Z AUTO 17003KT 10SM CLR 16/13 A2997 RMK AO1

More Conditions Fewer Conditions

Pressure 29.97 in
Visibility 10.0 miles
Clouds Clear
Dew Point 54 °F
Humidity 88%
Rainfall 0.02 in
Snow Depth 1 in , 0 in , 0 in
UV 0 out of 12
Pollen 6.10 out of 12
Air Quality Not available.
Flu Activity Not available.
METAR KCOE 231115Z AUTO 17003KT 10SM CLR 16/13 A2997 RMK AO1

More Conditions Fewer Conditions

10-Day Weather Forecast

Almanac

Astronomy

Sep. 23, 2014 Rise Set
Actual Time 6:35 AM PDT 6:43 PM PDT
Civil Twilight 6:05 AM PDT 7:13 PM PDT
Nautical Twilight 5:29 AM PDT 7:49 PM PDT
Astronomical Twilight 4:52 AM PDT 8:26 PM PDT
Moon 6:03 AM PDT 6:22 PM PDT
Length of Visible Light 13h 08m
Length of Day
12h 07m
Tomorrow will be 3m 23s shorter.
Waning Crescent, 1% of the Moon is Illuminated
Today
Waning Crescent
Sep 24
New
Oct 1
First Quarter
Oct 8
Full
Oct 15
Last Quarter

Today's Extremes

State Highs State Lows

Community

WunderPhotos

Upload Photos

1,755,644 photos uploaded!

Nearby

Snow Depth

Station Depth Elevation
Mud Flat 1 in 5730 ft
Swede Peak 0 in 7640 ft
Bogus Basin 0 in 6340 ft
Smiley Mountain 0 in 9520 ft
Lost Lake 0 in 6110 ft

Earthquake Activity

City Distance Mag. Time & Date
No recent earthquake activity has been reported nearby.
Minimum magnitude displayed is 2.5.

Coastal Water Temperatures

Place Temperature
No Stations Reporting

Nearby Weather Stations